sensor_id;sensor_type;location;lat;lon;timestamp;pressure;altitude;pressure_sealevel;temperature;humidity
6136;BME280;24008;42.664;23.372;2023-08-30T00:00:27;93817.94;;;18.34;100.00
6136;BME280;24008;42.664;23.372;2023-08-30T00:02:53;93600.03;;;17.08;100.00
6136;BME280;24008;42.664;23.372;2023-08-30T00:05:20;93854.88;;;18.73;100.00
6136;BME280;24008;42.664;23.372;2023-08-30T00:07:47;93865.97;;;18.80;100.00
6136;BME280;24008;42.664;23.372;2023-08-30T00:10:15;93863.72;;;18.84;100.00
6136;BME280;24008;42.664;23.372;2023-08-30T00:12:42;93777.34;;;18.35;100.00
6136;BME280;24008;42.664;23.372;2023-08-30T00:15:09;93885.19;;;18.91;100.00
6136;BME280;24008;42.664;23.372;2023-08-30T00:17:36;93717.50;;;18.00;100.00
6136;BME280;24008;42.664;23.372;2023-08-30T00:20:03;93751.66;;;18.33;100.00
6136;BME280;24008;42.664;23.372;2023-08-30T00:22:32;93599.72;;;16.98;100.00
6136;BME280;24008;42.664;23.372;2023-08-30T00:24:59;93708.63;;;17.89;100.00
6136;BME280;24008;42.664;23.372;2023-08-30T00:27:27;93863.06;;;18.95;100.00
6136;BME280;24008;42.664;23.372;2023-08-30T00:29:54;93827.19;;;18.74;100.00
6136;BME280;24008;42.664;23.372;2023-08-30T00:32:20;93850.13;;;18.95;100.00
6136;BME280;24008;42.664;23.372;2023-08-30T00:34:50;93752.09;;;18.30;100.00
6136;BME280;24008;42.664;23.372;2023-08-30T00:37:17;93849.38;;;18.88;100.00
6136;BME280;24008;42.664;23.372;2023-08-30T00:39:43;93756.72;;;17.97;100.00
6136;BME280;24008;42.664;23.372;2023-08-30T00:42:10;93776.94;;;18.07;100.00
6136;BME280;24008;42.664;23.372;2023-08-30T00:44:38;93792.69;;;18.30;100.00
6136;BME280;24008;42.664;23.372;2023-08-30T00:47:06;93794.16;;;18.19;100.00
6136;BME280;24008;42.664;23.372;2023-08-30T00:49:33;93879.25;;;18.84;100.00
6136;BME280;24008;42.664;23.372;2023-08-30T00:52:02;93708.91;;;17.81;100.00
6136;BME280;24008;42.664;23.372;2023-08-30T00:54:29;93868.97;;;18.77;100.00
6136;BME280;24008;42.664;23.372;2023-08-30T00:56:56;93531.75;;;16.73;100.00
6136;BME280;24008;42.664;23.372;2023-08-30T00:59:24;93365.50;;;15.61;100.00
6136;BME280;24008;42.664;23.372;2023-08-30T01:01:52;93589.38;;;16.98;100.00
6136;BME280;24008;42.664;23.372;2023-08-30T01:04:19;93890.31;;;18.73;100.00
6136;BME280;24008;42.664;23.372;2023-08-30T01:06:47;93489.13;;;16.19;100.00
6136;BME280;24008;42.664;23.372;2023-08-30T01:09:14;93925.88;;;18.84;100.00
6136;BME280;24008;42.664;23.372;2023-08-30T01:11:46;93738.72;;;17.84;97.81
6136;BME280;24008;42.664;23.372;2023-08-30T01:14:18;93391.25;;;15.61;98.48
6136;BME280;24008;42.664;23.372;2023-08-30T01:16:45;93894.66;;;19.03;96.58
6136;BME280;24008;42.664;23.372;2023-08-30T01:19:26;93889.09;;;19.00;95.55
6136;BME280;24008;42.664;23.372;2023-08-30T01:22:05;93970.66;;;19.16;94.82
6136;BME280;24008;42.664;23.372;2023-08-30T01:24:42;93899.72;;;19.17;95.32
6136;BME280;24008;42.664;23.372;2023-08-30T01:27:12;93884.00;;;19.12;99.10
6136;BME280;24008;42.664;23.372;2023-08-30T01:29:43;93539.69;;;16.78;100.00
6136;BME280;24008;42.664;23.372;2023-08-30T01:32:11;93906.63;;;18.98;100.00
6136;BME280;24008;42.664;23.372;2023-08-30T01:34:39;93467.53;;;16.20;100.00
6136;BME280;24008;42.664;23.372;2023-08-30T01:37:07;93895.84;;;18.83;100.00
6136;BME280;24008;42.664;23.372;2023-08-30T01:39:35;93877.34;;;18.79;100.00
6136;BME280;24008;42.664;23.372;2023-08-30T01:42:04;93580.13;;;16.84;100.00
6136;BME280;24008;42.664;23.372;2023-08-30T01:44:33;93935.75;;;18.68;100.00
6136;BME280;24008;42.664;23.372;2023-08-30T01:47:00;93742.97;;;17.65;100.00
6136;BME280;24008;42.664;23.372;2023-08-30T01:49:30;93899.31;;;18.70;100.00
6136;BME280;24008;42.664;23.372;2023-08-30T01:51:58;93507.19;;;16.19;100.00
6136;BME280;24008;42.664;23.372;2023-08-30T01:54:27;93890.53;;;18.71;100.00
6136;BME280;24008;42.664;23.372;2023-08-30T01:56:55;93905.97;;;18.59;100.00
6136;BME280;24008;42.664;23.372;2023-08-30T01:59:23;93805.53;;;17.80;100.00
6136;BME280;24008;42.664;23.372;2023-08-30T02:01:52;93798.44;;;17.69;100.00
6136;BME280;24008;42.664;23.372;2023-08-30T02:04:19;93626.09;;;16.62;100.00
6136;BME280;24008;42.664;23.372;2023-08-30T02:06:50;93749.75;;;17.66;100.00
6136;BME280;24008;42.664;23.372;2023-08-30T02:09:25;93880.56;;;18.43;100.00
6136;BME280;24008;42.664;23.372;2023-08-30T02:11:55;93878.88;;;18.55;100.00
6136;BME280;24008;42.664;23.372;2023-08-30T02:14:25;93818.31;;;18.07;100.00
6136;BME280;24008;42.664;23.372;2023-08-30T02:16:55;93892.22;;;18.52;100.00
6136;BME280;24008;42.664;23.372;2023-08-30T02:19:22;93814.31;;;17.73;100.00
6136;BME280;24008;42.664;23.372;2023-08-30T02:21:49;93875.50;;;18.55;100.00
6136;BME280;24008;42.664;23.372;2023-08-30T02:24:16;93528.59;;;16.26;100.00
6136;BME280;24008;42.664;23.372;2023-08-30T02:26:43;93665.59;;;17.07;100.00
6136;BME280;24008;42.664;23.372;2023-08-30T02:29:09;93780.72;;;17.73;100.00
6136;BME280;24008;42.664;23.372;2023-08-30T02:31:38;93832.81;;;18.08;100.00
6136;BME280;24008;42.664;23.372;2023-08-30T02:34:06;93866.53;;;18.26;100.00
6136;BME280;24008;42.664;23.372;2023-08-30T02:36:33;93811.88;;;17.84;100.00
6136;BME280;24008;42.664;23.372;2023-08-30T02:39:00;93866.56;;;18.19;100.00
6136;BME280;24008;42.664;23.372;2023-08-30T02:41:27;93867.78;;;18.17;100.00
6136;BME280;24008;42.664;23.372;2023-08-30T02:43:53;93828.53;;;17.88;100.00
6136;BME280;24008;42.664;23.372;2023-08-30T02:46:20;93849.19;;;17.95;100.00
6136;BME280;24008;42.664;23.372;2023-08-30T02:48:47;93872.19;;;18.10;100.00
6136;BME280;24008;42.664;23.372;2023-08-30T02:51:15;93784.13;;;17.60;100.00
6136;BME280;24008;42.664;23.372;2023-08-30T02:53:42;93722.72;;;17.17;100.00
6136;BME280;24008;42.664;23.372;2023-08-30T02:56:09;93748.34;;;17.25;100.00
6136;BME280;24008;42.664;23.372;2023-08-30T02:58:36;93866.66;;;18.06;100.00
6136;BME280;24008;42.664;23.372;2023-08-30T03:01:03;93817.84;;;17.78;100.00
6136;BME280;24008;42.664;23.372;2023-08-30T03:03:30;93862.19;;;18.20;100.00
6136;BME280;24008;42.664;23.372;2023-08-30T03:05:57;93755.94;;;17.52;100.00
6136;BME280;24008;42.664;23.372;2023-08-30T03:08:25;93847.41;;;18.27;100.00
6136;BME280;24008;42.664;23.372;2023-08-30T03:10:51;93813.53;;;18.04;100.00
6136;BME280;24008;42.664;23.372;2023-08-30T03:13:18;93820.31;;;18.05;100.00
6136;BME280;24008;42.664;23.372;2023-08-30T03:15:45;93832.03;;;18.07;100.00
6136;BME280;24008;42.664;23.372;2023-08-30T03:18:12;93865.38;;;18.22;100.00
6136;BME280;24008;42.664;23.372;2023-08-30T03:20:39;93832.97;;;17.81;100.00
6136;BME280;24008;42.664;23.372;2023-08-30T03:23:05;93868.97;;;18.14;100.00
6136;BME280;24008;42.664;23.372;2023-08-30T03:25:34;93875.34;;;18.12;100.00
6136;BME280;24008;42.664;23.372;2023-08-30T03:28:00;93771.88;;;17.42;100.00
6136;BME280;24008;42.664;23.372;2023-08-30T03:30:27;93599.00;;;16.27;100.00
6136;BME280;24008;42.664;23.372;2023-08-30T03:32:56;93864.66;;;18.02;100.00
6136;BME280;24008;42.664;23.372;2023-08-30T03:35:22;93832.56;;;17.84;100.00
6136;BME280;24008;42.664;23.372;2023-08-30T03:37:49;93808.41;;;17.59;100.00
6136;BME280;24008;42.664;23.372;2023-08-30T03:40:16;93795.47;;;17.59;100.00
6136;BME280;24008;42.664;23.372;2023-08-30T03:42:44;93853.00;;;17.92;100.00
6136;BME280;24008;42.664;23.372;2023-08-30T03:45:11;93637.56;;;16.60;100.00
6136;BME280;24008;42.664;23.372;2023-08-30T03:47:37;93839.69;;;17.89;100.00
6136;BME280;24008;42.664;23.372;2023-08-30T03:50:06;93844.63;;;17.90;100.00
6136;BME280;24008;42.664;23.372;2023-08-30T03:52:33;93849.41;;;17.93;100.00
6136;BME280;24008;42.664;23.372;2023-08-30T03:55:00;93806.19;;;17.62;100.00
6136;BME280;24008;42.664;23.372;2023-08-30T03:57:28;93856.78;;;17.90;100.00
6136;BME280;24008;42.664;23.372;2023-08-30T03:59:56;93867.91;;;17.90;100.00
6136;BME280;24008;42.664;23.372;2023-08-30T04:02:23;93871.50;;;17.89;100.00
6136;BME280;24008;42.664;23.372;2023-08-30T04:04:50;93799.91;;;17.45;100.00
6136;BME280;24008;42.664;23.372;2023-08-30T04:07:16;93876.25;;;17.92;100.00
6136;BME280;24008;42.664;23.372;2023-08-30T04:09:43;93883.41;;;17.90;100.00
6136;BME280;24008;42.664;23.372;2023-08-30T04:12:10;93815.78;;;17.49;100.00
6136;BME280;24008;42.664;23.372;2023-08-30T04:14:37;93859.22;;;17.78;100.00
6136;BME280;24008;42.664;23.372;2023-08-30T04:17:05;93872.47;;;17.95;100.00
6136;BME280;24008;42.664;23.372;2023-08-30T04:19:31;93874.59;;;18.05;100.00
6136;BME280;24008;42.664;23.372;2023-08-30T04:21:58;93891.66;;;18.19;100.00
6136;BME280;24008;42.664;23.372;2023-08-30T04:24:25;93900.47;;;18.36;100.00
6136;BME280;24008;42.664;23.372;2023-08-30T04:26:52;93828.84;;;18.05;100.00
6136;BME280;24008;42.664;23.372;2023-08-30T04:29:20;93898.41;;;18.51;100.00
6136;BME280;24008;42.664;23.372;2023-08-30T04:31:47;93919.63;;;18.66;100.00
6136;BME280;24008;42.664;23.372;2023-08-30T04:34:15;93848.53;;;18.38;98.25
6136;BME280;24008;42.664;23.372;2023-08-30T04:36:42;93926.72;;;19.02;96.86
6136;BME280;24008;42.664;23.372;2023-08-30T04:39:09;93828.69;;;18.56;95.76
6136;BME280;24008;42.664;23.372;2023-08-30T04:41:36;93880.84;;;19.10;95.50
6136;BME280;24008;42.664;23.372;2023-08-30T04:44:03;93941.91;;;19.49;95.50
6136;BME280;24008;42.664;23.372;2023-08-30T04:46:30;93877.84;;;19.13;94.56
6136;BME280;24008;42.664;23.372;2023-08-30T04:48:57;93810.59;;;18.56;94.81
6136;BME280;24008;42.664;23.372;2023-08-30T04:51:25;93769.00;;;18.33;94.73
6136;BME280;24008;42.664;23.372;2023-08-30T04:53:52;93805.97;;;18.65;97.80
6136;BME280;24008;42.664;23.372;2023-08-30T04:56:19;93915.50;;;19.33;99.19
6136;BME280;24008;42.664;23.372;2023-08-30T04:58:45;93907.84;;;19.20;99.96
6136;BME280;24008;42.664;23.372;2023-08-30T05:01:12;93886.94;;;18.97;100.00
6136;BME280;24008;42.664;23.372;2023-08-30T05:03:40;93926.41;;;19.17;100.00
6136;BME280;24008;42.664;23.372;2023-08-30T05:06:06;93882.72;;;19.02;100.00
6136;BME280;24008;42.664;23.372;2023-08-30T05:08:35;93799.94;;;18.46;98.83
6136;BME280;24008;42.664;23.372;2023-08-30T05:11:01;93934.88;;;19.56;98.71
6136;BME280;24008;42.664;23.372;2023-08-30T05:13:28;93940.19;;;19.79;98.03
6136;BME280;24008;42.664;23.372;2023-08-30T05:15:55;93970.09;;;20.00;95.88
6136;BME280;24008;42.664;23.372;2023-08-30T05:18:22;93908.19;;;19.85;95.05
6136;BME280;24008;42.664;23.372;2023-08-30T05:20:49;93951.09;;;20.18;95.81
6136;BME280;24008;42.664;23.372;2023-08-30T05:23:15;93939.06;;;20.41;94.03
6136;BME280;24008;42.664;23.372;2023-08-30T05:25:43;93934.91;;;20.94;91.05
6136;BME280;24008;42.664;23.372;2023-08-30T05:28:10;93819.25;;;20.56;85.70
6136;BME280;24008;42.664;23.372;2023-08-30T05:30:41;93952.72;;;21.67;82.66
6136;BME280;24008;42.664;23.372;2023-08-30T05:33:08;93954.72;;;21.88;81.59
6136;BME280;24008;42.664;23.372;2023-08-30T05:35:35;93882.44;;;22.02;78.91
6136;BME280;24008;42.664;23.372;2023-08-30T05:38:02;93952.53;;;23.22;76.55
6136;BME280;24008;42.664;23.372;2023-08-30T05:40:28;93877.47;;;23.24;76.61
6136;BME280;24008;42.664;23.372;2023-08-30T05:42:57;93894.06;;;24.17;72.97
6136;BME280;24008;42.664;23.372;2023-08-30T05:45:23;93954.38;;;24.86;69.38
6136;BME280;24008;42.664;23.372;2023-08-30T05:47:50;93945.13;;;25.32;67.52
6136;BME280;24008;42.664;23.372;2023-08-30T05:50:17;93909.06;;;25.81;62.98
6136;BME280;24008;42.664;23.372;2023-08-30T05:52:44;93958.69;;;26.80;58.26
6136;BME280;24008;42.664;23.372;2023-08-30T05:55:11;93951.91;;;27.30;55.48
6136;BME280;24008;42.664;23.372;2023-08-30T05:57:37;93956.38;;;27.55;54.00
6136;BME280;24008;42.664;23.372;2023-08-30T06:00:07;93910.47;;;27.37;55.26
6136;BME280;24008;42.664;23.372;2023-08-30T06:02:34;93949.56;;;27.44;55.34
6136;BME280;24008;42.664;23.372;2023-08-30T06:05:01;93960.84;;;27.24;56.20
6136;BME280;24008;42.664;23.372;2023-08-30T06:07:28;93961.13;;;27.53;55.85
6136;BME280;24008;42.664;23.372;2023-08-30T06:09:54;93959.47;;;27.92;54.61
6136;BME280;24008;42.664;23.372;2023-08-30T06:12:21;93950.97;;;28.31;52.92
6136;BME280;24008;42.664;23.372;2023-08-30T06:14:48;93948.22;;;28.61;51.20
6136;BME280;24008;42.664;23.372;2023-08-30T06:17:19;93913.06;;;28.47;51.19
6136;BME280;24008;42.664;23.372;2023-08-30T06:19:46;93917.06;;;28.29;48.81
6136;BME280;24008;42.664;23.372;2023-08-30T06:22:13;93885.28;;;28.26;48.58
6136;BME280;24008;42.664;23.372;2023-08-30T06:24:40;93956.25;;;28.75;48.35
6136;BME280;24008;42.664;23.372;2023-08-30T06:27:07;93914.19;;;28.75;47.29
6136;BME280;24008;42.664;23.372;2023-08-30T06:29:34;93895.06;;;28.64;47.59
6136;BME280;24008;42.664;23.372;2023-08-30T06:32:00;93907.53;;;28.93;48.02
6136;BME280;24008;42.664;23.372;2023-08-30T06:34:29;93956.53;;;29.57;45.84
6136;BME280;24008;42.664;23.372;2023-08-30T06:36:56;93894.53;;;29.41;44.66
6136;BME280;24008;42.664;23.372;2023-08-30T06:39:22;93967.47;;;30.22;45.66
6136;BME280;24008;42.664;23.372;2023-08-30T06:41:49;93940.56;;;29.72;46.57
6136;BME280;24008;42.664;23.372;2023-08-30T06:44:16;93963.72;;;29.75;45.65
6136;BME280;24008;42.664;23.372;2023-08-30T06:46:43;93841.78;;;29.51;46.05
6136;BME280;24008;42.664;23.372;2023-08-30T06:49:10;93635.88;;;28.58;44.16
6136;BME280;24008;42.664;23.372;2023-08-30T06:51:38;93928.75;;;30.65;42.75
6136;BME280;24008;42.664;23.372;2023-08-30T06:54:05;93967.38;;;31.31;41.59
6136;BME280;24008;42.664;23.372;2023-08-30T06:56:31;93846.03;;;29.94;43.56
6136;BME280;24008;42.664;23.372;2023-08-30T06:58:58;93963.25;;;30.87;42.34
6136;BME280;24008;42.664;23.372;2023-08-30T07:01:25;93960.16;;;31.36;42.58
6136;BME280;24008;42.664;23.372;2023-08-30T07:03:57;93962.44;;;31.43;41.67
6136;BME280;24008;42.664;23.372;2023-08-30T07:06:24;93890.78;;;30.98;39.78
6136;BME280;24008;42.664;23.372;2023-08-30T07:08:56;93975.34;;;31.12;40.71
6136;BME280;24008;42.664;23.372;2023-08-30T07:11:23;93970.19;;;31.02;40.11
6136;BME280;24008;42.664;23.372;2023-08-30T07:13:50;93917.97;;;30.61;41.54
6136;BME280;24008;42.664;23.372;2023-08-30T07:16:17;93964.16;;;31.34;39.28
6136;BME280;24008;42.664;23.372;2023-08-30T07:18:43;93781.69;;;30.89;38.58
6136;BME280;24008;42.664;23.372;2023-08-30T07:21:10;93962.50;;;32.30;37.30
6136;BME280;24008;42.664;23.372;2023-08-30T07:23:37;93941.72;;;31.50;38.06
6136;BME280;24008;42.664;23.372;2023-08-30T07:26:05;93882.88;;;30.79;39.05
6136;BME280;24008;42.664;23.372;2023-08-30T07:28:32;93774.84;;;29.57;39.77
6136;BME280;24008;42.664;23.372;2023-08-30T07:31:03;93955.22;;;30.78;40.52
6136;BME280;24008;42.664;23.372;2023-08-30T07:33:30;93965.47;;;30.99;39.39
6136;BME280;24008;42.664;23.372;2023-08-30T07:35:57;93828.91;;;30.16;40.19
6136;BME280;24008;42.664;23.372;2023-08-30T07:38:23;93966.81;;;31.34;39.59
6136;BME280;24008;42.664;23.372;2023-08-30T07:40:50;93925.47;;;31.75;38.29
6136;BME280;24008;42.664;23.372;2023-08-30T07:43:18;93934.94;;;31.76;37.28
6136;BME280;24008;42.664;23.372;2023-08-30T07:45:45;93971.66;;;31.92;37.26
6136;BME280;24008;42.664;23.372;2023-08-30T07:48:12;93945.63;;;31.85;37.21
6136;BME280;24008;42.664;23.372;2023-08-30T07:50:39;93531.53;;;29.58;36.78
6136;BME280;24008;42.664;23.372;2023-08-30T07:53:06;93961.91;;;32.74;35.89
6136;BME280;24008;42.664;23.372;2023-08-30T07:55:32;93960.25;;;32.51;37.06
6136;BME280;24008;42.664;23.372;2023-08-30T07:57:59;93983.72;;;32.94;35.56
6136;BME280;24008;42.664;23.372;2023-08-30T08:00:27;93931.13;;;32.78;35.44
6136;BME280;24008;42.664;23.372;2023-08-30T08:02:54;93893.81;;;32.52;35.25
6136;BME280;24008;42.664;23.372;2023-08-30T08:05:21;93858.16;;;32.86;34.17
6136;BME280;24008;42.664;23.372;2023-08-30T08:07:51;93969.06;;;34.08;34.14
6136;BME280;24008;42.664;23.372;2023-08-30T08:10:18;93774.69;;;32.66;33.67
6136;BME280;24008;42.664;23.372;2023-08-30T08:12:45;93874.38;;;32.35;35.72
6136;BME280;24008;42.664;23.372;2023-08-30T08:15:12;93944.06;;;32.80;35.09
6136;BME280;24008;42.664;23.372;2023-08-30T08:17:40;93885.31;;;32.42;35.18
6136;BME280;24008;42.664;23.372;2023-08-30T08:20:07;93861.72;;;32.32;34.66
6136;BME280;24008;42.664;23.372;2023-08-30T08:22:34;93927.81;;;32.59;34.30
6136;BME280;24008;42.664;23.372;2023-08-30T08:25:01;93970.50;;;33.16;34.42
6136;BME280;24008;42.664;23.372;2023-08-30T08:27:27;93957.03;;;33.04;33.99
6136;BME280;24008;42.664;23.372;2023-08-30T08:29:55;93971.13;;;33.35;34.45
6136;BME280;24008;42.664;23.372;2023-08-30T08:32:22;93969.94;;;33.41;32.40
6136;BME280;24008;42.664;23.372;2023-08-30T08:34:50;93967.06;;;33.29;31.80
6136;BME280;24008;42.664;23.372;2023-08-30T08:37:17;93945.97;;;33.46;31.99
6136;BME280;24008;42.664;23.372;2023-08-30T08:39:44;93899.44;;;33.54;33.35
6136;BME280;24008;42.664;23.372;2023-08-30T08:42:11;93968.09;;;33.95;33.28
6136;BME280;24008;42.664;23.372;2023-08-30T08:44:38;93919.09;;;33.31;32.30
6136;BME280;24008;42.664;23.372;2023-08-30T08:47:06;93977.06;;;33.54;31.99
6136;BME280;24008;42.664;23.372;2023-08-30T08:49:33;93985.38;;;33.70;31.01
6136;BME280;24008;42.664;23.372;2023-08-30T08:52:01;93823.88;;;32.81;30.49
6136;BME280;24008;42.664;23.372;2023-08-30T08:54:29;93891.84;;;33.39;30.70
6136;BME280;24008;42.664;23.372;2023-08-30T08:56:56;93962.41;;;33.35;30.02
6136;BME280;24008;42.664;23.372;2023-08-30T08:59:24;93804.38;;;32.41;31.91
6136;BME280;24008;42.664;23.372;2023-08-30T09:01:50;93948.47;;;33.43;30.50
6136;BME280;24008;42.664;23.372;2023-08-30T09:04:18;93967.00;;;33.43;30.24
6136;BME280;24008;42.664;23.372;2023-08-30T09:06:45;93979.00;;;33.71;29.41
6136;BME280;24008;42.664;23.372;2023-08-30T09:09:14;93971.31;;;34.14;30.09
6136;BME280;24008;42.664;23.372;2023-08-30T09:11:41;93964.44;;;34.13;30.33
6136;BME280;24008;42.664;23.372;2023-08-30T09:14:08;93865.25;;;32.63;30.47
6136;BME280;24008;42.664;23.372;2023-08-30T09:16:35;93965.88;;;33.21;31.44
6136;BME280;24008;42.664;23.372;2023-08-30T09:19:03;93935.78;;;33.17;30.87
6136;BME280;24008;42.664;23.372;2023-08-30T09:21:30;93966.22;;;32.84;32.32
6136;BME280;24008;42.664;23.372;2023-08-30T09:23:58;93921.31;;;32.65;32.51
6136;BME280;24008;42.664;23.372;2023-08-30T09:26:27;93863.81;;;32.93;31.66
6136;BME280;24008;42.664;23.372;2023-08-30T09:28:55;93959.44;;;33.14;32.75
6136;BME280;24008;42.664;23.372;2023-08-30T09:31:21;93950.84;;;33.08;32.62
6136;BME280;24008;42.664;23.372;2023-08-30T09:33:48;93969.38;;;32.72;33.50
6136;BME280;24008;42.664;23.372;2023-08-30T09:36:15;93876.03;;;32.31;34.45
6136;BME280;24008;42.664;23.372;2023-08-30T09:38:48;93961.34;;;33.22;32.25
6136;BME280;24008;42.664;23.372;2023-08-30T09:41:16;93964.44;;;33.15;32.93
6136;BME280;24008;42.664;23.372;2023-08-30T09:43:44;93964.13;;;33.31;32.03
6136;BME280;24008;42.664;23.372;2023-08-30T09:46:13;93966.53;;;33.41;32.10
6136;BME280;24008;42.664;23.372;2023-08-30T09:48:40;93967.47;;;33.67;32.00
6136;BME280;24008;42.664;23.372;2023-08-30T09:51:08;93886.25;;;33.18;31.05
6136;BME280;24008;42.664;23.372;2023-08-30T09:53:41;93794.28;;;32.79;30.45
6136;BME280;24008;42.664;23.372;2023-08-30T09:56:11;93840.41;;;33.09;30.32
6136;BME280;24008;42.664;23.372;2023-08-30T09:58:40;93954.09;;;34.03;29.85
6136;BME280;24008;42.664;23.372;2023-08-30T10:01:08;93947.28;;;33.13;31.57
6136;BME280;24008;42.664;23.372;2023-08-30T10:03:36;93800.91;;;32.32;33.79
6136;BME280;24008;42.664;23.372;2023-08-30T10:06:03;93939.59;;;33.47;32.34
6136;BME280;24008;42.664;23.372;2023-08-30T10:08:32;93895.06;;;33.27;31.04
6136;BME280;24008;42.664;23.372;2023-08-30T10:11:02;93896.66;;;32.92;31.22
6136;BME280;24008;42.664;23.372;2023-08-30T10:13:29;93935.34;;;33.02;32.57
6136;BME280;24008;42.664;23.372;2023-08-30T10:16:00;93883.81;;;32.85;31.90
6136;BME280;24008;42.664;23.372;2023-08-30T10:18:32;93868.28;;;32.84;32.87
6136;BME280;24008;42.664;23.372;2023-08-30T10:21:02;93929.31;;;32.87;33.05
6136;BME280;24008;42.664;23.372;2023-08-30T10:23:33;93781.00;;;31.71;32.78
6136;BME280;24008;42.664;23.372;2023-08-30T10:26:01;93891.91;;;32.67;32.87
6136;BME280;24008;42.664;23.372;2023-08-30T10:28:30;93926.41;;;33.34;31.04
6136;BME280;24008;42.664;23.372;2023-08-30T10:30:58;93923.31;;;32.96;31.71
6136;BME280;24008;42.664;23.372;2023-08-30T10:33:24;93755.72;;;31.92;31.17
6136;BME280;24008;42.664;23.372;2023-08-30T10:35:53;93907.66;;;32.85;31.51
6136;BME280;24008;42.664;23.372;2023-08-30T10:38:25;93892.41;;;32.82;33.29
6136;BME280;24008;42.664;23.372;2023-08-30T10:40:52;93907.06;;;32.11;33.80
6136;BME280;24008;42.664;23.372;2023-08-30T10:43:28;93921.16;;;31.79;33.94
6136;BME280;24008;42.664;23.372;2023-08-30T10:46:00;93895.00;;;30.80;35.36
6136;BME280;24008;42.664;23.372;2023-08-30T10:48:34;93776.53;;;29.90;36.50
6136;BME280;24008;42.664;23.372;2023-08-30T10:51:05;93906.25;;;30.67;37.04
6136;BME280;24008;42.664;23.372;2023-08-30T10:53:32;93909.13;;;30.90;37.52
6136;BME280;24008;42.664;23.372;2023-08-30T10:56:03;93910.63;;;30.77;37.10
6136;BME280;24008;42.664;23.372;2023-08-30T10:58:40;93908.28;;;30.75;36.53
6136;BME280;24008;42.664;23.372;2023-08-30T11:01:09;93850.50;;;29.94;36.71
6136;BME280;24008;42.664;23.372;2023-08-30T11:03:40;93911.34;;;30.21;35.98
6136;BME280;24008;42.664;23.372;2023-08-30T11:06:13;93912.19;;;30.17;35.75
6136;BME280;24008;42.664;23.372;2023-08-30T11:08:41;93907.38;;;29.95;36.62
6136;BME280;24008;42.664;23.372;2023-08-30T11:11:09;93860.38;;;30.07;35.63
6136;BME280;24008;42.664;23.372;2023-08-30T11:13:37;93912.31;;;30.06;35.93
6136;BME280;24008;42.664;23.372;2023-08-30T11:16:04;93822.16;;;29.09;36.51
6136;BME280;24008;42.664;23.372;2023-08-30T11:18:36;93897.03;;;29.56;37.30
6136;BME280;24008;42.664;23.372;2023-08-30T11:21:03;93792.69;;;28.78;37.98
6136;BME280;24008;42.664;23.372;2023-08-30T11:23:33;93625.72;;;27.84;37.12
6136;BME280;24008;42.664;23.372;2023-08-30T11:26:00;93841.50;;;29.52;37.46
6136;BME280;24008;42.664;23.372;2023-08-30T11:28:29;93764.69;;;29.21;36.85
6136;BME280;24008;42.664;23.372;2023-08-30T11:30:56;93888.19;;;30.18;35.89
6136;BME280;24008;42.664;23.372;2023-08-30T11:33:22;93747.47;;;29.29;36.43
6136;BME280;24008;42.664;23.372;2023-08-30T11:35:51;93872.84;;;30.01;36.49
6136;BME280;24008;42.664;23.372;2023-08-30T11:38:18;93869.66;;;30.04;36.62
6136;BME280;24008;42.664;23.372;2023-08-30T11:40:49;93873.13;;;30.00;37.15
6136;BME280;24008;42.664;23.372;2023-08-30T11:43:16;93867.16;;;30.13;36.42
6136;BME280;24008;42.664;23.372;2023-08-30T11:45:43;93867.22;;;30.08;35.73
6136;BME280;24008;42.664;23.372;2023-08-30T11:48:10;93857.63;;;29.93;35.42
6136;BME280;24008;42.664;23.372;2023-08-30T11:50:37;93798.84;;;29.50;35.63
6136;BME280;24008;42.664;23.372;2023-08-30T11:53:04;93856.19;;;29.58;35.77
6136;BME280;24008;42.664;23.372;2023-08-30T11:55:32;93655.66;;;28.17;36.10
6136;BME280;24008;42.664;23.372;2023-08-30T11:58:01;93845.03;;;29.43;35.93
6136;BME280;24008;42.664;23.372;2023-08-30T12:00:32;93848.72;;;29.42;36.33
6136;BME280;24008;42.664;23.372;2023-08-30T12:02:59;93842.78;;;29.55;36.46
6136;BME280;24008;42.664;23.372;2023-08-30T12:05:26;93818.84;;;29.22;35.85
6136;BME280;24008;42.664;23.372;2023-08-30T12:07:53;93741.63;;;28.84;35.44
6136;BME280;24008;42.664;23.372;2023-08-30T12:10:19;93828.69;;;29.46;36.10
6136;BME280;24008;42.664;23.372;2023-08-30T12:12:46;93787.66;;;29.40;35.00
6136;BME280;24008;42.664;23.372;2023-08-30T12:15:14;93847.50;;;29.58;35.37
6136;BME280;24008;42.664;23.372;2023-08-30T12:17:42;93752.38;;;28.88;34.84
6136;BME280;24008;42.664;23.372;2023-08-30T12:20:14;93859.91;;;29.23;35.44
6136;BME280;24008;42.664;23.372;2023-08-30T12:22:42;93701.34;;;28.26;35.92
6136;BME280;24008;42.664;23.372;2023-08-30T12:25:19;93806.94;;;29.06;35.67
6136;BME280;24008;42.664;23.372;2023-08-30T12:27:46;93701.81;;;28.62;35.14
6136;BME280;24008;42.664;23.372;2023-08-30T12:30:15;93837.75;;;29.58;35.24
6136;BME280;24008;42.664;23.372;2023-08-30T12:32:43;93828.47;;;29.85;35.04
6136;BME280;24008;42.664;23.372;2023-08-30T12:35:10;93814.72;;;30.12;33.79
6136;BME280;24008;42.664;23.372;2023-08-30T12:37:37;93761.84;;;29.84;33.70
6136;BME280;24008;42.664;23.372;2023-08-30T12:40:05;93800.91;;;30.20;33.17
6136;BME280;24008;42.664;23.372;2023-08-30T12:42:32;93806.41;;;30.23;32.07
6136;BME280;24008;42.664;23.372;2023-08-30T12:44:59;93814.94;;;30.34;31.99
6136;BME280;24008;42.664;23.372;2023-08-30T12:47:27;93726.19;;;29.92;32.10
6136;BME280;24008;42.664;23.372;2023-08-30T12:49:54;93805.41;;;30.57;32.97
6136;BME280;24008;42.664;23.372;2023-08-30T12:52:21;93764.78;;;30.39;33.00
6136;BME280;24008;42.664;23.372;2023-08-30T12:54:48;93755.94;;;30.49;31.90
6136;BME280;24008;42.664;23.372;2023-08-30T12:57:14;93784.78;;;30.77;31.34
6136;BME280;24008;42.664;23.372;2023-08-30T12:59:41;93747.63;;;30.74;30.63